Indianapolis, Indiana
Traffic Map
Current Weather Conditions
Indianapolis, Indiana
Broken Clouds
Broken Clouds
52°
Feels Like: 52°
Wind Chill: 52° Ceiling: 25000
Heat Index: 52° Visibility: 10mi
Dew Point: 47° Wind: 5mph
Humidity: 83% Direction: 220° (SW)
Pressure: 30.19in Gusts: 0mph
Raw Report DataKIND 191254Z 22004KT 10SM BKN250 11/08 A3019 RMK AO2 SLP223 T01110083
Traffic Incident Summary
Active as of:
Severity:
Category:
InformationThere was an issue retrieving the traffic information for this location. Please try a different location or try again shortly.
Advertisements